Time;durP1;ratioP1;P1;durP2;ratioP2;P2;SDS_P1;SDS_P2;PMS_P1;PMS_P2;Temp;Humidity;BMP_temperature;BMP_pressure;BME280_temperature;BME280_humidity;BME280_pressure;Samples;Min_cycle;Max_cycle;Signal;HPM_P1;HPM_P2
2021/08/29 00:00:29;;;;;;;14.95;7.57;;;;;;;15.31;78.97;102322.81;4889293;29;20024;-85
2021/08/29 00:02:55;;;;;;;14.02;7.13;;;;;;;15.17;78.84;102299.13;4892459;29;20024;-85
2021/08/29 00:05:20;;;;;;;14.13;7.75;;;;;;;15.32;78.71;102321.84;4874738;29;20051;-85
2021/08/29 00:07:46;;;;;;;10.77;6.43;;;;;;;15.35;78.85;102324.19;4852594;29;20536;-85
2021/08/29 00:10:12;;;;;;;8.52;5.07;;;;;;;15.35;78.62;102318.78;4876444;29;20035;-87
2021/08/29 00:12:39;;;;;;;8.40;5.10;;;;;;;15.32;78.11;102324.53;4888121;29;20032;-86
2021/08/29 00:15:05;;;;;;;12.25;5.32;;;;;;;15.20;77.94;102308.78;4869609;29;20039;-86
2021/08/29 00:17:31;;;;;;;10.80;5.28;;;;;;;15.04;78.48;102306.91;4883310;29;20047;-86
2021/08/29 00:19:56;;;;;;;9.43;4.88;;;;;;;14.99;78.66;102309.25;4884115;29;20119;-86
2021/08/29 00:22:22;;;;;;;6.20;3.60;;;;;;;14.94;78.46;102305.19;4881015;29;20035;-87
2021/08/29 00:24:48;;;;;;;7.38;3.33;;;;;;;14.89;78.60;102307.53;4900705;29;20066;-87
2021/08/29 00:27:14;;;;;;;5.75;3.28;;;;;;;14.88;78.58;102315.84;4883629;29;21545;-87
2021/08/29 00:29:39;;;;;;;7.00;3.58;;;;;;;14.84;78.05;102326.16;4896028;29;20080;-86
2021/08/29 00:32:06;;;;;;;8.55;4.05;;;;;;;14.71;77.64;102313.09;4882905;29;20020;-86
2021/08/29 00:34:31;;;;;;;7.00;4.38;;;;;;;14.75;78.45;102321.75;4880730;29;20447;-86
2021/08/29 00:36:57;;;;;;;9.07;4.78;;;;;;;14.72;78.46;102313.94;4900772;29;20036;-88
2021/08/29 00:39:22;;;;;;;6.75;4.10;;;;;;;14.71;78.84;102307.69;4899289;29;20032;-88
2021/08/29 00:41:48;;;;;;;8.82;4.30;;;;;;;14.80;78.12;102318.53;4900808;29;20043;-86
2021/08/29 00:44:18;;;;;;;7.93;4.50;;;;;;;14.78;77.82;102328.69;4870205;29;20028;-86
2021/08/29 00:46:45;;;;;;;6.72;4.45;;;;;;;14.83;78.05;102321.75;4883910;29;20857;-87
2021/08/29 00:49:13;;;;;;;10.35;5.18;;;;;;;14.75;78.46;102315.47;4890398;29;20111;-89
2021/08/29 00:51:39;;;;;;;7.63;4.82;;;;;;;14.75;78.09;102321.75;4883612;29;20135;-88
2021/08/29 00:54:05;;;;;;;8.20;4.75;;;;;;;14.61;78.16;102303.44;4884868;29;20040;-86
2021/08/29 00:56:30;;;;;;;7.68;4.45;;;;;;;14.47;78.74;102296.75;4884709;29;20396;-86
2021/08/29 00:58:56;;;;;;;7.88;4.93;;;;;;;14.45;78.85;102310.44;4885977;29;20032;-86
2021/08/29 01:01:23;;;;;;;6.60;3.95;;;;;;;14.37;78.88;102318.53;4900040;29;20040;-86
2021/08/29 01:03:54;;;;;;;5.43;4.05;;;;;;;14.25;79.31;102323.38;4887139;29;20036;-86
2021/08/29 01:06:39;;;;;;;4.53;3.00;;;;;;;14.03;79.53;102326.66;4912540;29;20043;-87
2021/08/29 01:09:09;;;;;;;6.55;3.30;;;;;;;13.78;79.88;102323.78;4879066;29;20044;-87
2021/08/29 01:11:36;;;;;;;5.75;3.40;;;;;;;13.86;79.72;102325.69;4889071;29;20043;-87
2021/08/29 01:14:07;;;;;;;5.22;3.42;;;;;;;13.86;79.37;102312.16;4903232;29;20500;-88
2021/08/29 01:16:35;;;;;;;7.43;4.40;;;;;;;13.93;79.92;102315.94;4901231;29;20139;-89
2021/08/29 01:19:26;;;;;;;8.00;3.92;;;;;;;13.98;79.46;102313.59;4881938;29;20064;-86
2021/08/29 01:21:52;;;;;;;7.00;4.35;;;;;;;13.91;80.33;102315.25;4883454;29;20040;-87
2021/08/29 01:24:19;;;;;;;7.85;3.97;;;;;;;13.90;80.14;102320.84;4889216;29;20040;-86
2021/08/29 01:26:58;;;;;;;7.05;4.40;;;;;;;13.76;80.79;102300.59;4873191;29;20083;-87
2021/08/29 01:29:25;;;;;;;6.85;4.53;;;;;;;13.80;81.02;102320.94;4888035;29;20487;-86
2021/08/29 01:31:51;;;;;;;7.90;4.03;;;;;;;13.80;80.61;102327.19;4889084;29;20059;-87
2021/08/29 01:34:17;;;;;;;9.25;4.22;;;;;;;13.85;80.69;102324.84;4903352;29;20032;-88
2021/08/29 01:36:45;;;;;;;8.13;4.85;;;;;;;13.91;80.93;102330.63;4885443;29;20495;-86
2021/08/29 01:39:11;;;;;;;8.73;5.10;;;;;;;13.94;80.66;102324.91;4879717;29;20037;-86
2021/08/29 01:41:38;;;;;;;11.13;4.97;;;;;;;14.00;80.89;102327.81;4863737;29;20554;-86
2021/08/29 01:44:05;;;;;;;7.65;4.20;;;;;;;14.04;80.30;102328.34;4876139;29;20035;-86
2021/08/29 01:46:32;;;;;;;7.47;4.05;;;;;;;13.98;80.02;102329.00;4888525;29;20037;-86
2021/08/29 01:48:58;;;;;;;8.60;4.32;;;;;;;13.95;79.94;102332.03;4890857;29;20087;-85
2021/08/29 01:51:23;;;;;;;9.70;4.72;;;;;;;13.82;79.54;102316.22;4875243;29;20035;-87
2021/08/29 01:53:49;;;;;;;5.47;3.72;;;;;;;13.77;79.73;102327.50;4861868;29;20051;-86
2021/08/29 01:56:15;;;;;;;10.70;4.72;;;;;;;13.77;79.95;102332.06;4887962;29;20533;-86
2021/08/29 01:58:41;;;;;;;7.13;4.55;;;;;;;13.83;80.19;102334.97;4881904;29;20047;-86
2021/08/29 02:01:11;;;;;;;7.55;4.40;;;;;;;13.82;80.25;102330.56;4881974;29;20547;-86
2021/08/29 02:03:39;;;;;;;7.32;4.93;;;;;;;13.87;80.38;102332.81;4878255;29;20515;-86
2021/08/29 02:06:31;;;;;;;10.10;4.97;;;;;;;13.93;80.48;102336.72;4880583;29;20040;-86
2021/08/29 02:09:06;;;;;;;10.20;5.47;;;;;;;13.94;80.25;102333.84;4895615;29;20035;-86
2021/08/29 02:11:36;;;;;;;11.45;5.68;;;;;;;13.96;80.07;102339.94;4877274;29;20483;-87
2021/08/29 02:14:03;;;;;;;9.07;5.05;;;;;;;13.90;79.96;102321.66;4914283;29;20036;-87
2021/08/29 02:16:40;;;;;;;8.82;4.85;;;;;;;13.88;79.69;102329.09;4895821;29;20035;-86
2021/08/29 02:19:06;;;;;;;8.43;4.65;;;;;;;13.93;79.49;102336.72;4896480;29;20036;-87
2021/08/29 02:21:32;;;;;;;8.57;4.60;;;;;;;13.85;80.15;102324.00;4891516;29;20957;-86
2021/08/29 02:24:01;;;;;;;10.30;4.93;;;;;;;13.84;79.66;102338.53;4875818;29;20522;-86
2021/08/29 02:26:27;;;;;;;10.07;5.18;;;;;;;13.82;79.49;102340.53;4893834;29;20047;-85
2021/08/29 02:28:53;;;;;;;8.80;4.50;;;;;;;13.75;79.33;102340.31;4877230;29;20028;-86
2021/08/29 02:31:20;;;;;;;9.25;4.68;;;;;;;13.69;79.72;102330.16;4878120;29;20035;-86
2021/08/29 02:33:46;;;;;;;8.80;4.18;;;;;;;13.64;79.85;102332.47;4879828;29;20495;-88
2021/08/29 02:36:14;;;;;;;6.60;4.10;;;;;;;13.55;79.70;102322.63;4895739;29;20028;-86
2021/08/29 02:38:41;;;;;;;8.25;4.45;;;;;;;13.33;80.35;102308.56;4879126;29;20028;-87
2021/08/29 02:41:07;;;;;;;6.53;4.13;;;;;;;13.45;80.14;102336.22;4866786;29;20514;-87
2021/08/29 02:43:33;;;;;;;8.18;4.30;;;;;;;13.33;80.26;102341.00;4879803;29;20502;-85
2021/08/29 02:45:59;;;;;;;6.28;3.90;;;;;;;13.23;80.53;102336.63;4871117;29;20033;-86
2021/08/29 02:48:25;;;;;;;5.63;3.55;;;;;;;13.18;80.80;102339.84;4888689;29;20508;-86
2021/08/29 02:50:51;;;;;;;5.88;3.70;;;;;;;13.09;81.23;102327.25;4883091;29;20917;-86
2021/08/29 02:53:17;;;;;;;7.63;3.63;;;;;;;13.05;81.26;102325.88;4888624;29;20032;-86
2021/08/29 02:55:46;;;;;;;6.65;4.13;;;;;;;12.88;81.49;102311.31;4876403;29;20122;-87
2021/08/29 02:58:12;;;;;;;6.72;3.90;;;;;;;13.02;82.27;102324.31;4878534;29;20039;-86
2021/08/29 03:00:38;;;;;;;6.03;3.90;;;;;;;13.03;81.12;102320.59;4877749;29;20032;-85
2021/08/29 03:03:03;;;;;;;5.57;3.33;;;;;;;13.12;81.43;102333.16;4874337;29;20043;-87
2021/08/29 03:05:29;;;;;;;9.07;4.07;;;;;;;13.12;81.38;102330.47;4876847;29;20033;-86
2021/08/29 03:07:55;;;;;;;8.63;4.00;;;;;;;13.17;80.10;102338.97;4893306;29;20031;-87
2021/08/29 03:10:21;;;;;;;6.72;3.70;;;;;;;13.11;80.58;102317.97;4891376;29;20033;-86
2021/08/29 03:12:47;;;;;;;6.30;3.78;;;;;;;13.13;80.42;102332.19;4887944;29;20032;-87
2021/08/29 03:15:13;;;;;;;6.95;3.80;;;;;;;13.12;81.12;102325.06;4890093;29;20067;-86
2021/08/29 03:17:39;;;;;;;6.13;3.60;;;;;;;13.17;80.77;102322.75;4872485;29;20043;-86
2021/08/29 03:20:07;;;;;;;6.20;3.75;;;;;;;13.16;79.69;102322.91;4887866;29;20035;-86
2021/08/29 03:22:34;;;;;;;6.90;3.63;;;;;;;13.09;79.89;102316.44;4880885;29;20519;-87
2021/08/29 03:25:00;;;;;;;4.75;3.30;;;;;;;13.01;80.44;102311.81;4873981;29;20036;-86
2021/08/29 03:27:26;;;;;;;5.45;3.58;;;;;;;12.98;80.48;102314.81;4890041;29;20025;-86
2021/08/29 03:29:52;;;;;;;7.40;3.60;;;;;;;12.91;81.40;102311.03;4886337;29;20032;-86
2021/08/29 03:32:19;;;;;;;4.75;2.97;;;;;;;12.91;81.16;102322.69;4852296;29;20064;-86
2021/08/29 03:34:46;;;;;;;3.78;2.70;;;;;;;12.70;80.78;102301.38;4867058;29;20043;-85
2021/08/29 03:37:12;;;;;;;2.92;2.20;;;;;;;12.74;81.71;102310.00;4877373;29;22166;-87
2021/08/29 03:39:38;;;;;;;3.28;2.20;;;;;;;12.69;81.17;102304.22;4887987;29;20034;-85
2021/08/29 03:42:04;;;;;;;2.47;2.00;;;;;;;12.72;80.42;102320.09;4877096;29;20426;-87
2021/08/29 03:44:30;;;;;;;3.20;2.22;;;;;;;12.71;80.42;102313.00;4874952;29;20032;-86
2021/08/29 03:46:56;;;;;;;4.22;2.72;;;;;;;12.67;80.11;102312.44;4873300;29;20901;-85
2021/08/29 03:49:22;;;;;;;4.40;2.35;;;;;;;12.72;80.59;102312.00;4858254;29;20036;-85
2021/08/29 03:51:48;;;;;;;3.45;2.55;;;;;;;12.77;80.39;102315.94;4859783;29;20394;-85
2021/08/29 03:54:14;;;;;;;4.53;2.25;;;;;;;12.80;80.24;102311.25;4872658;29;20035;-85
2021/08/29 03:56:40;;;;;;;6.95;3.10;;;;;;;12.86;80.27;102319.59;4875365;29;20092;-85
2021/08/29 03:59:06;;;;;;;4.43;2.67;;;;;;;12.84;80.02;102309.94;4874664;29;20047;-85
2021/08/29 04:01:32;;;;;;;4.78;2.88;;;;;;;12.85;81.03;102317.88;4875012;29;20024;-85
2021/08/29 04:03:58;;;;;;;5.63;2.95;;;;;;;12.92;81.58;102315.44;4880138;29;20028;-85
2021/08/29 04:06:26;;;;;;;5.35;3.53;;;;;;;12.92;81.95;102326.22;4874308;29;20040;-85
2021/08/29 04:08:55;;;;;;;10.20;3.10;;;;;;;12.81;82.53;102310.22;4871435;29;20063;-86
2021/08/29 04:11:22;;;;;;;7.47;3.92;;;;;;;12.91;82.78;102320.00;4871016;29;20036;-85
2021/08/29 04:13:49;;;;;;;8.00;3.47;;;;;;;13.08;82.99;102323.69;4866140;29;20032;-86
2021/08/29 04:16:15;;;;;;;7.03;3.63;;;;;;;13.03;82.77;102315.19;4872242;29;20517;-85
2021/08/29 04:18:42;;;;;;;6.13;3.67;;;;;;;13.06;83.10;102322.16;4858229;29;20115;-85
2021/08/29 04:21:09;;;;;;;7.10;4.25;;;;;;;12.99;82.96;102311.09;4878309;29;20055;-86
2021/08/29 04:23:35;;;;;;;8.23;3.60;;;;;;;13.07;83.08;102322.00;4880239;29;20039;-85
2021/08/29 04:26:01;;;;;;;8.98;3.95;;;;;;;13.09;82.97;102317.28;4873242;29;20055;-85
2021/08/29 04:28:27;;;;;;;6.03;3.85;;;;;;;13.10;83.00;102318.16;4901567;29;20412;-86
2021/08/29 04:30:55;;;;;;;11.15;4.90;;;;;;;13.12;83.16;102308.84;4872923;29;20064;-85
2021/08/29 04:33:20;;;;;;;13.27;5.30;;;;;;;13.18;83.87;102308.25;4871050;29;20040;-86
2021/08/29 04:35:46;;;;;;;22.23;6.63;;;;;;;13.16;84.34;102309.41;4884554;29;20040;-85
2021/08/29 04:38:12;;;;;;;23.10;8.02;;;;;;;13.23;85.10;102312.34;4884321;29;20127;-85
2021/08/29 04:40:37;;;;;;;24.48;7.55;;;;;;;13.28;85.89;102320.84;4859453;29;20657;-85
2021/08/29 04:43:03;;;;;;;22.77;7.30;;;;;;;13.24;86.06;102301.38;4857945;29;20034;-85
2021/08/29 04:45:29;;;;;;;24.88;8.60;;;;;;;13.26;86.63;102312.00;4873128;29;20044;-86
2021/08/29 04:47:54;;;;;;;26.83;8.75;;;;;;;13.24;86.70;102314.88;4877649;29;20039;-86
2021/08/29 04:50:20;;;;;;;21.27;8.57;;;;;;;13.31;87.13;102315.13;4875379;29;20100;-86
2021/08/29 04:52:45;;;;;;;29.27;8.30;;;;;;;13.39;86.88;102315.22;4874704;29;20036;-86
2021/08/29 04:55:11;;;;;;;32.85;8.75;;;;;;;13.48;86.53;102322.38;4880125;29;20051;-86
2021/08/29 04:57:37;;;;;;;17.23;7.30;;;;;;;13.42;87.35;102304.09;4880462;29;20032;-86
2021/08/29 05:00:04;;;;;;;16.00;7.35;;;;;;;13.48;87.07;102316.97;4880717;29;20035;-86
2021/08/29 05:02:30;;;;;;;11.88;5.68;;;;;;;13.51;87.31;102316.66;4875044;29;20096;-87
2021/08/29 05:04:55;;;;;;;15.18;5.97;;;;;;;13.57;87.43;102323.28;4885082;29;20036;-86
2021/08/29 05:07:21;;;;;;;10.80;6.70;;;;;;;13.44;87.61;102310.19;4890214;29;20175;-86
2021/08/29 05:09:48;;;;;;;13.52;6.32;;;;;;;13.46;87.79;102321.69;4883801;29;20028;-85
2021/08/29 05:12:13;;;;;;;12.85;5.75;;;;;;;13.43;87.70;102296.84;4876908;29;20032;-85
2021/08/29 05:14:39;;;;;;;12.32;5.80;;;;;;;13.53;87.54;102314.66;4891830;29;20385;-85
2021/08/29 05:17:05;;;;;;;15.20;6.63;;;;;;;13.47;87.84;102320.69;4873603;29;20111;-84
2021/08/29 05:19:30;;;;;;;13.15;5.70;;;;;;;13.25;88.28;102299.53;4890864;29;20040;-85
2021/08/29 05:21:56;;;;;;;10.38;5.28;;;;;;;13.29;89.04;102309.91;4878753;29;20028;-85
2021/08/29 05:24:21;;;;;;;9.63;4.97;;;;;;;13.29;89.35;102318.00;4860317;29;20036;-85
2021/08/29 05:26:47;;;;;;;8.85;4.80;;;;;;;13.35;89.45;102322.78;4891697;29;20048;-85
2021/08/29 05:29:12;;;;;;;10.80;5.88;;;;;;;13.39;89.72;102324.19;4877599;29;20480;-84
2021/08/29 05:31:38;;;;;;;11.30;4.80;;;;;;;13.40;89.59;102319.63;4874874;29;20047;-86
2021/08/29 05:34:04;;;;;;;13.93;6.28;;;;;;;13.42;89.73;102323.03;4862409;29;20126;-85
2021/08/29 05:36:29;;;;;;;11.45;5.95;;;;;;;13.56;89.57;102332.41;4892132;29;20039;-85
2021/08/29 05:38:55;;;;;;;11.60;5.95;;;;;;;13.57;89.55;102321.44;4906360;29;20100;-85
2021/08/29 05:41:20;;;;;;;9.55;5.20;;;;;;;13.64;89.38;102327.91;4874114;29;20029;-85
2021/08/29 05:43:46;;;;;;;13.50;6.00;;;;;;;13.68;89.36;102328.47;4891761;29;20038;-84
2021/08/29 05:46:12;;;;;;;9.95;6.07;;;;;;;13.75;89.84;102334.06;4878166;29;20395;-85
2021/08/29 05:48:37;;;;;;;13.48;5.90;;;;;;;13.70;90.00;102325.59;4877074;29;20059;-85
2021/08/29 05:51:03;;;;;;;10.70;5.75;;;;;;;13.70;89.80;102334.53;4887093;29;20064;-85
2021/08/29 05:53:28;;;;;;;11.38;6.10;;;;;;;13.71;90.03;102340.81;4893495;29;20028;-85
2021/08/29 05:55:55;;;;;;;12.77;6.35;;;;;;;13.76;90.22;102339.34;4888903;29;20191;-85
2021/08/29 05:58:20;;;;;;;11.35;5.95;;;;;;;13.75;90.13;102334.06;4876313;29;20028;-85
2021/08/29 06:00:46;;;;;;;12.52;6.72;;;;;;;13.74;90.12;102337.78;4905195;29;20028;-85
2021/08/29 06:03:12;;;;;;;10.82;6.25;;;;;;;13.69;90.39;102334.72;4888551;29;20787;-85
2021/08/29 06:05:37;;;;;;;10.40;5.93;;;;;;;13.70;90.55;102337.25;4889423;29;20120;-85
2021/08/29 06:08:03;;;;;;;12.60;6.55;;;;;;;13.69;90.68;102332.00;4882125;29;22404;-86
2021/08/29 06:10:29;;;;;;;11.00;6.18;;;;;;;13.75;90.52;102334.06;4882068;29;20028;-87
2021/08/29 06:12:55;;;;;;;13.65;6.55;;;;;;;13.80;90.51;102345.25;4880640;29;20491;-86
2021/08/29 06:15:20;;;;;;;11.70;6.43;;;;;;;13.68;90.60;102316.78;4903991;29;20039;-86
2021/08/29 06:17:46;;;;;;;14.50;7.10;;;;;;;13.80;90.84;102332.59;4895807;29;20027;-86
2021/08/29 06:20:12;;;;;;;12.90;7.18;;;;;;;13.97;91.04;102347.06;4893741;29;20040;-86
2021/08/29 06:22:38;;;;;;;12.60;7.40;;;;;;;14.07;90.79;102350.50;4893770;29;20035;-86
2021/08/29 06:25:04;;;;;;;13.18;7.55;;;;;;;14.11;90.76;102339.38;4884625;29;20036;-86
2021/08/29 06:27:30;;;;;;;12.10;7.18;;;;;;;14.13;90.98;102335.50;4865415;29;20508;-86
2021/08/29 06:29:56;;;;;;;12.73;7.53;;;;;;;14.22;91.09;102342.63;4879639;29;20051;-86
2021/08/29 06:32:22;;;;;;;18.85;8.27;;;;;;;14.24;91.08;102328.97;4915075;29;20024;-86
2021/08/29 06:34:47;;;;;;;14.38;7.57;;;;;;;14.39;91.13;102345.41;4884234;29;20056;-87
2021/08/29 06:37:13;;;;;;;17.98;9.00;;;;;;;14.36;91.50;102332.22;4885749;29;21559;-85
2021/08/29 06:39:38;;;;;;;14.75;7.40;;;;;;;14.42;91.68;102337.84;4879890;29;20031;-86
2021/08/29 06:42:04;;;;;;;14.75;7.65;;;;;;;14.47;92.04;102346.31;4888981;29;20032;-86
2021/08/29 06:44:30;;;;;;;15.80;8.70;;;;;;;14.53;91.97;102344.84;4889098;29;20028;-88
2021/08/29 06:46:55;;;;;;;16.00;8.65;;;;;;;14.57;92.00;102346.22;4888155;29;20083;-87
2021/08/29 06:49:21;;;;;;;13.38;7.78;;;;;;;14.59;92.02;102341.50;4889878;29;20040;-87
2021/08/29 06:51:47;;;;;;;14.18;8.45;;;;;;;14.61;91.91;102344.03;4888279;29;20031;-86
2021/08/29 06:54:14;;;;;;;15.45;8.55;;;;;;;14.66;91.94;102344.38;4889152;29;20028;-89
2021/08/29 06:56:40;;;;;;;14.57;8.05;;;;;;;14.69;91.93;102346.78;4888997;29;20027;-88
2021/08/29 06:59:05;;;;;;;17.25;8.25;;;;;;;14.77;91.91;102352.22;4886796;29;20476;-86
2021/08/29 07:01:31;;;;;;;12.68;8.05;;;;;;;14.79;91.81;102346.63;4903321;29;20032;-86
2021/08/29 07:03:56;;;;;;;12.43;7.20;;;;;;;14.83;91.94;102348.84;4886329;29;20465;-86
2021/08/29 07:06:22;;;;;;;13.00;7.18;;;;;;;14.88;91.58;102357.31;4883311;29;20574;-87
2021/08/29 07:08:48;;;;;;;12.38;7.47;;;;;;;14.66;91.72;102317.28;4886830;29;20099;-84
2021/08/29 07:11:13;;;;;;;11.85;7.05;;;;;;;14.97;91.53;102363.59;4866834;29;20477;-86
2021/08/29 07:13:39;;;;;;;11.88;7.45;;;;;;;14.92;91.55;102350.56;4902014;29;20075;-86
2021/08/29 07:16:05;;;;;;;11.02;6.85;;;;;;;15.02;91.61;102354.97;4898841;29;20031;-88
2021/08/29 07:18:31;;;;;;;14.98;7.47;;;;;;;15.02;91.62;102361.22;4887198;29;20058;-87
2021/08/29 07:20:56;;;;;;;12.27;7.13;;;;;;;15.08;91.21;102366.00;4880814;29;20542;-86
2021/08/29 07:23:23;;;;;;;12.93;7.32;;;;;;;15.10;91.34;102363.13;4897276;29;20032;-88
2021/08/29 07:25:49;;;;;;;11.75;7.30;;;;;;;15.10;91.29;102353.13;4883878;29;20088;-87
2021/08/29 07:28:15;;;;;;;11.45;6.28;;;;;;;15.12;91.29;102364.66;4884622;29;20047;-87
2021/08/29 07:30:43;;;;;;;10.43;6.82;;;;;;;15.12;91.12;102372.78;4869155;29;20396;-86
2021/08/29 07:33:08;;;;;;;12.25;7.40;;;;;;;15.06;91.27;102362.63;4884299;29;20506;-86
2021/08/29 07:35:34;;;;;;;11.38;6.72;;;;;;;15.05;91.55;102370.91;4868778;29;20039;-87
2021/08/29 07:38:00;;;;;;;10.25;6.78;;;;;;;15.11;91.63;102371.09;4884012;29;20028;-86
2021/08/29 07:40:25;;;;;;;11.75;7.35;;;;;;;15.11;91.58;102375.63;4885056;29;20040;-86
2021/08/29 07:42:52;;;;;;;11.50;6.53;;;;;;;15.10;91.31;102363.97;4900360;29;20121;-86
2021/08/29 07:45:17;;;;;;;12.40;6.85;;;;;;;15.14;91.37;102365.34;4898503;29;20062;-89
2021/08/29 07:47:43;;;;;;;11.75;7.57;;;;;;;15.16;91.23;102370.56;4887696;29;20032;-86
2021/08/29 07:50:09;;;;;;;10.35;6.43;;;;;;;15.26;91.41;102376.69;4868399;29;20032;-86
2021/08/29 07:52:34;;;;;;;12.90;7.25;;;;;;;15.22;91.43;102356.38;4898925;29;20036;-86
2021/08/29 07:55:00;;;;;;;13.98;7.20;;;;;;;15.35;91.22;102369.44;4868544;29;20032;-88
2021/08/29 07:57:27;;;;;;;11.20;6.60;;;;;;;15.31;91.13;102352.66;4874001;29;20028;-86
2021/08/29 07:59:52;;;;;;;10.95;7.43;;;;;;;15.35;91.42;102362.16;4883788;29;20031;-87
2021/08/29 08:02:18;;;;;;;11.65;6.93;;;;;;;15.45;91.17;102358.41;4871334;29;20455;-87
2021/08/29 08:04:43;;;;;;;12.55;7.20;;;;;;;15.51;91.08;102360.47;4869369;29;20060;-87
2021/08/29 08:07:11;;;;;;;11.13;6.75;;;;;;;15.60;90.88;102373.00;4878505;29;20036;-86
2021/08/29 08:09:37;;;;;;;12.77;7.25;;;;;;;15.66;90.76;102369.59;4894961;29;20036;-87
2021/08/29 08:12:03;;;;;;;11.65;6.65;;;;;;;15.66;90.49;102363.31;4890021;29;20036;-85
2021/08/29 08:14:29;;;;;;;11.15;7.03;;;;;;;15.65;90.24;102372.47;4866298;29;20111;-85
2021/08/29 08:16:55;;;;;;;13.98;7.82;;;;;;;15.51;90.12;102353.16;4894732;29;20103;-85
2021/08/29 08:19:20;;;;;;;10.50;6.07;;;;;;;15.61;90.07;102363.81;4876708;29;20037;-86
2021/08/29 08:21:46;;;;;;;10.07;6.80;;;;;;;15.57;89.95;102374.16;4877040;29;20076;-85
2021/08/29 08:24:12;;;;;;;11.40;7.10;;;;;;;15.56;90.30;102371.66;4872165;29;20028;-85
2021/08/29 08:26:37;;;;;;;10.20;6.35;;;;;;;15.53;90.00;102352.97;4890649;29;20032;-85
2021/08/29 08:29:03;;;;;;;10.48;6.47;;;;;;;15.44;89.79;102338.59;4878388;29;20405;-85
2021/08/29 08:31:28;;;;;;;13.00;7.05;;;;;;;15.64;89.75;102366.22;4888397;29;20036;-85
2021/08/29 08:33:54;;;;;;;9.60;7.05;;;;;;;15.70;89.83;102372.84;4873199;29;20507;-86
2021/08/29 08:36:20;;;;;;;12.48;7.60;;;;;;;15.70;89.42;102360.13;4883725;29;20036;-86
2021/08/29 08:38:45;;;;;;;10.70;6.35;;;;;;;15.76;89.66;102359.44;4872976;29;20444;-85
2021/08/29 08:41:11;;;;;;;10.70;6.80;;;;;;;15.77;89.76;102358.44;4882009;29;20036;-86
2021/08/29 08:43:37;;;;;;;9.70;6.63;;;;;;;15.83;89.56;102370.47;4903559;29;20380;-85
2021/08/29 08:46:03;;;;;;;10.20;6.93;;;;;;;15.93;89.64;102370.28;4886107;29;20032;-85
2021/08/29 08:48:29;;;;;;;11.50;6.78;;;;;;;15.97;89.17;102360.78;4888468;29;20462;-85
2021/08/29 08:50:56;;;;;;;9.73;6.53;;;;;;;15.98;89.04;102373.31;4879831;29;20119;-85
2021/08/29 08:53:23;;;;;;;10.48;6.47;;;;;;;16.00;89.02;102365.84;4884381;29;20035;-86
2021/08/29 08:55:50;;;;;;;9.73;6.50;;;;;;;16.02;89.10;102367.38;4882546;29;20088;-86
2021/08/29 08:58:17;;;;;;;12.45;8.00;;;;;;;16.07;89.10;102368.75;4878322;29;20106;-84
2021/08/29 09:00:47;;;;;;;10.02;6.68;;;;;;;16.10;89.38;102366.53;4878993;29;20024;-83
2021/08/29 09:03:12;;;;;;;12.00;7.75;;;;;;;16.04;88.35;102364.50;4883311;29;20036;-84
2021/08/29 09:05:39;;;;;;;10.57;6.78;;;;;;;16.07;88.63;102366.88;4897608;29;20061;-83
2021/08/29 09:08:05;;;;;;;11.18;6.82;;;;;;;16.04;88.60;102368.06;4903893;29;20032;-83
2021/08/29 09:10:31;;;;;;;10.90;6.70;;;;;;;16.10;88.33;102371.09;4883298;29;20040;-84
2021/08/29 09:12:58;;;;;;;9.00;5.85;;;;;;;16.12;88.31;102372.63;4882454;29;20032;-85
2021/08/29 09:15:24;;;;;;;11.65;6.57;;;;;;;16.08;88.51;102368.56;4883226;29;20095;-86
2021/08/29 09:17:50;;;;;;;10.50;6.50;;;;;;;16.08;88.31;102367.72;4883604;29;20016;-85
2021/08/29 09:20:28;;;;;;;11.18;6.82;;;;;;;16.12;88.55;102369.06;4880057;29;20043;-85
2021/08/29 09:23:04;;;;;;;11.63;6.32;;;;;;;16.04;88.71;102368.06;4898217;29;20035;-85
2021/08/29 09:25:33;;;;;;;10.13;7.32;;;;;;;16.12;88.56;102371.78;4885845;29;20032;-86
2021/08/29 09:28:00;;;;;;;10.07;6.68;;;;;;;16.13;88.68;102379.75;4896081;29;20400;-86
2021/08/29 09:30:28;;;;;;;13.30;8.07;;;;;;;16.12;88.78;102375.34;4884382;29;20679;-83
2021/08/29 09:33:01;;;;;;;12.45;7.68;;;;;;;16.20;88.91;102378.03;4892641;29;20066;-84
2021/08/29 09:35:37;;;;;;;13.45;8.55;;;;;;;16.18;89.23;102365.66;4872882;29;20660;-86
2021/08/29 09:38:10;;;;;;;13.90;7.97;;;;;;;16.21;89.31;102368.03;4909427;29;20448;-87
2021/08/29 09:40:37;;;;;;;14.98;8.35;;;;;;;16.25;88.90;102374.81;4886960;29;20484;-86
2021/08/29 09:43:05;;;;;;;14.77;8.55;;;;;;;16.30;88.69;102374.25;4875934;29;20034;-86
2021/08/29 09:45:33;;;;;;;14.38;8.00;;;;;;;16.31;88.67;102368.66;4882815;29;20035;-85
2021/08/29 09:48:01;;;;;;;13.05;8.13;;;;;;;16.31;88.77;102373.25;4884623;29;20055;-85
2021/08/29 09:50:29;;;;;;;14.43;8.68;;;;;;;16.23;88.89;102355.97;4866670;29;20043;-84
2021/08/29 09:53:10;;;;;;;15.57;8.02;;;;;;;16.37;88.39;102370.69;4863657;29;20024;-86
2021/08/29 09:55:38;;;;;;;11.93;8.25;;;;;;;16.34;88.54;102359.34;4871000;29;20029;-85
2021/08/29 09:58:28;;;;;;;15.13;7.90;;;;;;;16.40;88.64;102362.19;4875119;29;20032;-85
2021/08/29 10:01:01;;;;;;;13.48;8.23;;;;;;;16.45;88.35;102359.78;4902081;29;20055;-86
2021/08/29 10:03:28;;;;;;;12.35;7.10;;;;;;;16.56;88.09;102366.69;4888829;29;20032;-86
2021/08/29 10:06:13;;;;;;;13.95;8.45;;;;;;;16.63;88.08;102366.84;4864884;29;20075;-86
2021/08/29 10:08:42;;;;;;;12.32;8.00;;;;;;;16.60;87.74;102362.63;4883467;29;20032;-87
2021/08/29 10:11:09;;;;;;;13.05;8.30;;;;;;;16.67;87.55;102360.91;4886770;29;20058;-86
2021/08/29 10:13:36;;;;;;;13.13;7.60;;;;;;;16.69;87.26;102364.25;4893046;29;20032;-86
2021/08/29 10:16:03;;;;;;;12.32;7.25;;;;;;;16.69;87.04;102361.53;4909931;29;20055;-87
2021/08/29 10:18:30;;;;;;;11.23;7.07;;;;;;;16.46;87.27;102333.50;4880115;29;20056;-86
2021/08/29 10:20:58;;;;;;;12.55;6.85;;;;;;;16.69;86.69;102369.69;4906269;29;20028;-86
2021/08/29 10:23:24;;;;;;;11.40;6.57;;;;;;;16.70;86.65;102360.53;4903418;29;20848;-86
2021/08/29 10:25:50;;;;;;;13.00;7.28;;;;;;;16.71;86.63;102364.94;4911671;29;20048;-87
2021/08/29 10:28:24;;;;;;;13.10;7.82;;;;;;;16.73;87.09;102356.63;4883182;29;20024;-86
2021/08/29 10:30:53;;;;;;;12.50;7.68;;;;;;;16.78;86.74;102359.69;4903651;29;20787;-87
2021/08/29 10:33:19;;;;;;;13.88;7.47;;;;;;;16.72;86.56;102344.03;4883985;29;20453;-86
2021/08/29 10:35:46;;;;;;;10.73;6.88;;;;;;;16.81;86.21;102353.06;4878887;29;20076;-86
2021/08/29 10:38:12;;;;;;;13.48;7.07;;;;;;;16.66;86.39;102329.31;4877136;29;20021;-87
2021/08/29 10:40:37;;;;;;;10.13;6.90;;;;;;;16.88;86.26;102349.44;4886005;29;20647;-87
2021/08/29 10:43:04;;;;;;;10.93;6.50;;;;;;;16.78;86.01;102329.81;4868238;29;20449;-87
2021/08/29 10:45:29;;;;;;;9.27;6.00;;;;;;;17.02;85.77;102357.84;4883851;29;20437;-89
2021/08/29 10:47:55;;;;;;;10.32;6.57;;;;;;;17.11;85.18;102343.19;4887530;29;20032;-86
2021/08/29 10:50:22;;;;;;;10.65;6.57;;;;;;;17.12;85.20;102340.28;4870413;29;20036;-86
2021/08/29 10:52:48;;;;;;;10.63;6.68;;;;;;;17.23;84.64;102359.94;4887838;29;20039;-87
2021/08/29 10:55:15;;;;;;;10.55;6.28;;;;;;;17.24;85.03;102357.00;4902548;29;20032;-86
2021/08/29 10:57:42;;;;;;;9.77;6.20;;;;;;;17.26;85.08;102357.69;4893810;29;20392;-86
2021/08/29 11:00:25;;;;;;;10.10;5.85;;;;;;;17.28;84.48;102361.06;4866470;29;20028;-86
2021/08/29 11:02:52;;;;;;;11.38;6.25;;;;;;;17.35;84.21;102358.47;4883993;29;20032;-86
2021/08/29 11:05:29;;;;;;;9.32;5.80;;;;;;;17.33;84.29;102366.81;4880163;29;20020;-87
2021/08/29 11:07:56;;;;;;;9.15;5.38;;;;;;;17.31;84.38;102360.72;4899324;29;20117;-86
2021/08/29 11:10:37;;;;;;;8.90;5.50;;;;;;;17.37;84.13;102367.28;4873951;29;20046;-86
2021/08/29 11:13:27;;;;;;;9.98;5.47;;;;;;;17.34;83.83;102373.94;4897803;29;20563;-85
2021/08/29 11:16:14;;;;;;;9.20;5.07;;;;;;;17.41;83.67;102365.03;4879790;29;20035;-85
2021/08/29 11:18:58;;;;;;;8.07;5.47;;;;;;;17.51;83.77;102366.47;4909939;29;20036;-85